Hauptseite
METAR-TAF:

METAR-TAF

Flughäfen :

Bohrplattform

K14-fa-1c, Niederlande

Breite: 53-16-10N, Länge: 3-37-40E, Höhe: 28 m

Beobachtung

Neuester Wetterbericht von vor 21 Minuten, um 23:55 UTC
Wind 12 kt aus Ost/Nordost
Temperatur 15°C
Luftfeuchtigkeit 88%
Luftdruck 1006 hPa
Sichtweite: 5000 m
Leicht bewölkt in der Höhe von 1500 ft, Kumulonimbus.
Sprühregen

METAR: EHKV 232355Z AUTO 06012KT 5000 DZ FEW015CB 15/13 Q1006 W///H///

Zeit: 02:16 (00:16 UTC)


TAF: fehlend

Wetterbeobachtungen und Prognosen von mehr als 4000 Flughäfen (METAR und TAF Bericht).

Die verfügbaren Stationen werden durch gelbe und rote Markierungen auf der Karte dargestellt.

Führen Sie die Maus auf sie, um den Namen der Station zu sehen.

Darauf klicken, um die Beobachtung von Wetterbeobachtungen und Prognosen zu sehen.

Um die Karte zu ändern : klicken Sie auf den grünen Tasten mit einem schwarzen Kreuz Zum Vergrößern, auf den grünen Button mit einem Gedankenstrich zu verkleinern, oder auf die grünen Pfeile für benachbarte Karten.


METAR-TAF: